Time;durP1;ratioP1;P1;durP2;ratioP2;P2;SDS_P1;SDS_P2;PMS_P1;PMS_P2;Temp;Humidity;BMP_temperature;BMP_pressure;BME280_temperature;BME280_humidity;BME280_pressure;Samples;Min_cycle;Max_cycle;Signal;HPM_P1;HPM_P2
2023/03/14 00:00:28;;;;;;;;;;;10.20;99.90;;;;;;5074446;28;20040;-71
2023/03/14 00:02:54;;;;;;;17.30;3.45;;;10.20;99.90;;;;;;5074498;28;19990;-71
2023/03/14 00:05:19;;;;;;;;;;;10.10;99.90;;;;;;5089206;28;20383;-71
2023/03/14 00:07:45;;;;;;;11.90;2.45;;;10.10;99.90;;;;;;5094814;28;20362;-71
2023/03/14 00:10:13;;;;;;;;;;;10.40;99.90;;;;;;5113344;28;20114;-71
2023/03/14 00:12:39;;;;;;;10.95;2.88;;;10.10;99.90;;;;;;5112111;28;20312;-71
2023/03/14 00:15:08;;;;;;;18.15;3.10;;;10.10;99.90;;;;;;5077951;28;20480;-70
2023/03/14 00:17:36;;;;;;;16.15;2.60;;;10.10;99.90;;;;;;5071795;28;20048;-71
2023/03/14 00:20:07;;;;;;;14.77;2.60;;;10.00;99.90;;;;;;5071810;28;20044;-70
2023/03/14 00:22:34;;;;;;;9.60;2.40;;;9.80;99.90;;;;;;5071873;28;20036;-71
2023/03/14 00:25:00;;;;;;;11.38;3.35;;;10.20;99.90;;;;;;5071325;28;20044;-71
2023/03/14 00:27:26;;;;;;;15.30;3.08;;;10.10;99.90;;;;;;5071632;28;20415;-70
2023/03/14 00:29:52;;;;;;;;;;;9.60;99.90;;;;;;5075849;28;20049;-71
2023/03/14 00:32:17;;;;;;;11.95;2.60;;;9.60;99.90;;;;;;5080080;28;19924;-71
2023/03/14 00:34:43;;;;;;;;;;;10.10;99.90;;;;;;5081640;28;20105;-70
2023/03/14 00:37:09;;;;;;;6.70;1.88;;;9.40;99.90;;;;;;5081817;28;20373;-71
2023/03/14 00:39:34;;;;;;;14.30;4.07;;;9.40;99.90;;;;;;5080103;28;20140;-71
2023/03/14 00:42:00;;;;;;;;;;;9.90;99.90;;;;;;5077043;28;20041;-71
2023/03/14 00:44:25;;;;;;;15.15;3.20;;;9.40;99.90;;;;;;5071845;28;20380;-71
2023/03/14 00:46:51;;;;;;;;;;;9.30;99.90;;;;;;5071829;28;20047;-71
2023/03/14 00:49:16;;;;;;;15.20;3.13;;;9.10;99.90;;;;;;5071718;28;20367;-71
2023/03/14 00:51:42;;;;;;;;;;;9.10;99.90;;;;;;5071085;28;20095;-71
2023/03/14 00:54:08;;;;;;;17.35;3.72;;;9.60;99.90;;;;;;5074512;28;19928;-71
2023/03/14 00:56:33;;;;;;;;;;;9.20;99.90;;;;;;5075849;28;20488;-71
2023/03/14 00:58:59;;;;;;;10.73;2.42;;;9.20;99.90;;;;;;5075503;28;20346;-71
2023/03/14 01:01:24;;;;;;;;;;;9.40;99.90;;;;;;5073946;28;20051;-71
2023/03/14 01:03:55;;;;;;;20.52;4.07;;;9.40;99.90;;;;;;5075448;28;19982;-71
2023/03/14 01:06:23;;;;;;;11.82;2.67;;;9.70;99.90;;;;;;5073624;28;20135;-71
2023/03/14 01:08:49;;;;;;;17.05;3.10;;;9.50;99.90;;;;;;5074766;28;20032;-71
2023/03/14 01:11:18;;;;;;;19.33;3.42;;;9.60;99.90;;;;;;5078450;28;20127;-71
2023/03/14 01:13:44;;;;;;;11.68;2.40;;;9.60;99.90;;;;;;5074908;28;20545;-71
2023/03/14 01:16:10;;;;;;;;;;;9.40;99.90;;;;;;5093733;28;20044;-71
2023/03/14 01:18:38;;;;;;;11.47;3.00;;;9.40;99.90;;;;;;5094953;28;19973;-71
2023/03/14 01:21:11;;;;;;;11.02;2.92;;;9.50;99.90;;;;;;5076958;28;20361;-71
2023/03/14 01:23:37;;;;;;;16.75;2.72;;;9.40;99.90;;;;;;5094768;28;20048;-71
2023/03/14 01:26:02;;;;;;;;;;;9.40;99.90;;;;;;5095836;28;20047;-71
2023/03/14 01:28:30;;;;;;;15.02;2.88;;;9.30;99.90;;;;;;5076813;28;19965;-71
2023/03/14 01:31:01;;;;;;;19.75;2.88;;;9.40;99.90;;;;;;5094538;28;20376;-71
2023/03/14 01:33:27;;;;;;;17.48;3.13;;;9.20;99.90;;;;;;5094737;28;20064;-71
2023/03/14 01:35:52;;;;;;;;;;;9.10;99.90;;;;;;5076890;28;20499;-71
2023/03/14 01:38:18;;;;;;;11.02;3.10;;;9.30;99.90;;;;;;5101862;28;19915;-71
2023/03/14 01:40:45;;;;;;;;;;;9.20;99.90;;;;;;5115621;28;20035;-71
2023/03/14 01:43:19;;;;;;;17.17;3.15;;;9.60;99.90;;;;;;5096455;28;20427;-71
2023/03/14 01:46:03;;;;;;;12.80;3.15;;;9.10;99.90;;;;;;5097108;28;20448;-71
2023/03/14 01:48:32;;;;;;;18.83;3.72;;;9.10;99.90;;;;;;5096431;28;20043;-70
2023/03/14 01:51:01;;;;;;;13.02;2.85;;;9.90;99.90;;;;;;5114562;28;20093;-71
2023/03/14 01:53:28;;;;;;;15.55;3.00;;;9.20;99.90;;;;;;5114616;28;20051;-70
2023/03/14 01:55:58;;;;;;;14.75;2.88;;;9.60;99.90;;;;;;5096687;28;20093;-70
2023/03/14 01:58:27;;;;;;;18.38;3.33;;;9.80;99.90;;;;;;5114235;28;20067;-71
2023/03/14 02:00:58;;;;;;;12.50;2.92;;;9.10;99.90;;;;;;5096596;28;20047;-71
2023/03/14 02:03:26;;;;;;;18.48;3.28;;;9.20;99.90;;;;;;5114403;28;20047;-71
2023/03/14 02:05:55;;;;;;;19.10;3.00;;;10.30;99.90;;;;;;5096120;28;20051;-71
2023/03/14 02:08:22;;;;;;;18.30;3.28;;;9.10;99.90;;;;;;5094900;28;20085;-71
2023/03/14 02:10:52;;;;;;;12.02;2.72;;;9.80;99.90;;;;;;5114780;28;20040;-71
2023/03/14 02:13:21;;;;;;;22.92;3.25;;;9.20;99.90;;;;;;5095805;28;20043;-71
2023/03/14 02:15:48;;;;;;;19.38;2.67;;;9.40;99.90;;;;;;5112746;28;20083;-71
2023/03/14 02:18:15;;;;;;;25.08;3.25;;;9.00;99.90;;;;;;5095632;28;20470;-71
2023/03/14 02:21:07;;;;;;;20.88;3.53;;;9.20;99.90;;;;;;5114191;28;20044;-71
2023/03/14 02:23:53;;;;;;;18.58;3.03;;;9.10;99.90;;;;;;5113921;28;20044;-71
2023/03/14 02:26:22;;;;;;;19.50;2.90;;;8.90;99.90;;;;;;5108394;28;20039;-71
2023/03/14 02:28:48;;;;;;;19.15;3.35;;;9.20;99.90;;;;;;5075693;28;20514;-70
2023/03/14 02:31:15;;;;;;;;;;;9.40;99.90;;;;;;5094292;28;20083;-71
2023/03/14 02:33:41;;;;;;;19.60;3.08;;;9.00;99.90;;;;;;5093068;28;19927;-71
2023/03/14 02:36:11;;;;;;;15.30;3.22;;;8.90;99.90;;;;;;5095010;28;20112;-71
2023/03/14 02:38:58;;;;;;;18.33;2.80;;;8.90;99.90;;;;;;5095795;28;20048;-71
2023/03/14 02:41:23;;;;;;;13.30;2.92;;;8.90;99.90;;;;;;5095206;28;20050;-71
2023/03/14 02:43:49;;;;;;;13.57;2.80;;;8.90;99.90;;;;;;5114300;28;20040;-71
2023/03/14 02:46:20;;;;;;;17.33;2.80;;;8.90;99.90;;;;;;5096306;28;20044;-71
2023/03/14 02:48:45;;;;;;;12.60;3.17;;;9.00;99.90;;;;;;5112627;28;20046;-71
2023/03/14 02:51:11;;;;;;;;;;;9.00;99.90;;;;;;5114386;28;20398;-70
2023/03/14 02:53:38;;;;;;;17.27;2.50;;;9.00;99.90;;;;;;5094866;28;20293;-71
2023/03/14 02:56:04;;;;;;;15.60;2.65;;;8.80;99.90;;;;;;5096014;28;20367;-70
2023/03/14 02:58:29;;;;;;;;;;;8.80;99.90;;;;;;5113620;28;20134;-71
2023/03/14 03:00:55;;;;;;;18.92;3.20;;;8.80;99.90;;;;;;5102024;28;20031;-71
2023/03/14 03:03:21;;;;;;;17.40;3.45;;;8.60;99.90;;;;;;5092980;28;20383;-71
2023/03/14 03:05:50;;;;;;;;;;;9.30;99.90;;;;;;5093472;28;20097;-71
2023/03/14 03:08:17;;;;;;;18.13;3.15;;;8.70;99.90;;;;;;5074878;28;19920;-71
2023/03/14 03:10:42;;;;;;;19.65;3.17;;;8.70;99.90;;;;;;5093466;28;20088;-71
2023/03/14 03:13:08;;;;;;;;;;;8.60;99.90;;;;;;5093285;28;20044;-71
2023/03/14 03:15:34;;;;;;;18.27;4.32;;;8.50;99.90;;;;;;5074417;28;20014;-71
2023/03/14 03:17:59;;;;;;;;;;;8.50;99.90;;;;;;5093363;28;20111;-71
2023/03/14 03:20:28;;;;;;;19.80;3.42;;;8.50;99.90;;;;;;5092845;28;19920;-71
2023/03/14 03:22:53;;;;;;;;;;;8.50;99.90;;;;;;5093243;28;20040;-71
2023/03/14 03:25:19;;;;;;;22.80;4.32;;;9.60;99.90;;;;;;5092077;28;19924;-71
2023/03/14 03:27:44;;;;;;;;;;;9.60;99.90;;;;;;5073230;28;20098;-71
2023/03/14 03:30:10;;;;;;;25.45;3.97;;;8.50;99.90;;;;;;5071292;28;19942;-71
2023/03/14 03:32:36;;;;;;;18.50;4.00;;;8.50;99.90;;;;;;5071581;28;20510;-71
2023/03/14 03:35:02;;;;;;;;;;;8.70;99.90;;;;;;5073071;28;20048;-71
2023/03/14 03:37:33;;;;;;;18.08;3.50;;;8.60;99.90;;;;;;5070723;28;19987;-71
2023/03/14 03:40:00;;;;;;;30.27;3.83;;;8.60;99.90;;;;;;5071416;28;20053;-70
2023/03/14 03:42:27;;;;;;;14.85;4.10;;;8.60;99.90;;;;;;5071050;28;20036;-71
2023/03/14 03:44:53;;;;;;;22.77;4.40;;;8.70;99.90;;;;;;5070829;28;20048;-71
2023/03/14 03:47:18;;;;;;;;;;;8.70;99.90;;;;;;5072704;28;20044;-71
2023/03/14 03:49:44;;;;;;;15.75;3.42;;;8.80;99.90;;;;;;5075589;28;19916;-70
2023/03/14 03:52:09;;;;;;;;;;;8.90;99.90;;;;;;5082930;28;20472;-71
2023/03/14 03:54:36;;;;;;;24.02;3.72;;;8.80;99.90;;;;;;5079642;28;20375;-71
2023/03/14 03:57:01;;;;;;;22.70;3.78;;;8.70;99.90;;;;;;5079353;28;20489;-71
2023/03/14 03:59:27;;;;;;;;;;;8.70;99.90;;;;;;5081805;28;20075;-71
2023/03/14 04:01:53;;;;;;;27.05;3.85;;;8.70;99.90;;;;;;5088239;28;19920;-71
2023/03/14 04:04:18;;;;;;;;;;;9.40;99.90;;;;;;5079637;28;20381;-72
2023/03/14 04:06:44;;;;;;;24.05;3.70;;;8.60;99.90;;;;;;5072154;28;20376;-70
2023/03/14 04:09:10;;;;;;;;;;;8.60;99.90;;;;;;5072367;28;20464;-71
2023/03/14 04:11:36;;;;;;;21.80;4.05;;;8.60;99.90;;;;;;5079049;28;19927;-71
2023/03/14 04:14:02;;;;;;;;;;;8.60;99.90;;;;;;5080159;28;20054;-71
2023/03/14 04:16:28;;;;;;;17.33;3.58;;;8.60;99.90;;;;;;5092296;28;19920;-71
2023/03/14 04:18:53;;;;;;;;;;;9.20;99.90;;;;;;5092189;28;20861;-71
2023/03/14 04:21:19;;;;;;;18.33;3.65;;;8.60;99.90;;;;;;5083309;28;19972;-71
2023/03/14 04:23:45;;;;;;;;;;;9.10;99.90;;;;;;5085142;28;20092;-71
2023/03/14 04:26:10;;;;;;;18.70;3.55;;;8.50;99.90;;;;;;5083600;28;20012;-71
2023/03/14 04:28:36;;;;;;;;;;;8.40;99.90;;;;;;5083453;28;20101;-70
2023/03/14 04:31:13;;;;;;;18.42;3.35;;;8.40;99.90;;;;;;5078634;28;19924;-71
2023/03/14 04:33:39;;;;;;;13.63;3.28;;;8.50;99.90;;;;;;5097713;28;20044;-71
2023/03/14 04:36:06;;;;;;;;;;;8.50;99.90;;;;;;5094846;28;20055;-71
2023/03/14 04:38:32;;;;;;;15.23;3.13;;;8.40;99.90;;;;;;5095385;28;19920;-70
2023/03/14 04:40:58;;;;;;;15.88;3.63;;;8.40;99.90;;;;;;5095754;28;20044;-70
2023/03/14 04:43:25;;;;;;;12.95;3.05;;;8.50;99.90;;;;;;5116372;28;20048;-70
2023/03/14 04:45:55;;;;;;;13.20;2.90;;;8.50;99.90;;;;;;5097493;28;20043;-71
2023/03/14 04:48:21;;;;;;;12.23;2.55;;;8.40;99.90;;;;;;5105221;28;20046;-71
2023/03/14 04:50:47;;;;;;;;;;;8.70;99.90;;;;;;5097096;28;20453;-71
2023/03/14 04:53:14;;;;;;;14.95;2.75;;;8.50;99.90;;;;;;5091394;28;19924;-71
2023/03/14 04:55:39;;;;;;;9.60;2.15;;;8.30;99.90;;;;;;5098015;28;20073;-71
2023/03/14 04:58:05;;;;;;;;;;;8.30;99.90;;;;;;5098361;28;20048;-71
2023/03/14 05:00:30;;;;;;;12.20;3.28;;;8.30;99.90;;;;;;5096518;28;19926;-71
2023/03/14 05:02:56;;;;;;;;;;;8.40;99.90;;;;;;5098560;28;20035;-71
2023/03/14 05:05:22;;;;;;;10.05;2.60;;;9.10;99.90;;;;;;5097529;28;19959;-71
2023/03/14 05:07:47;;;;;;;;;;;8.20;99.90;;;;;;5116002;28;20067;-70
2023/03/14 05:10:13;;;;;;;6.93;2.05;;;8.20;99.90;;;;;;5097870;28;19919;-71
2023/03/14 05:12:39;;;;;;;4.07;1.80;;;8.20;99.90;;;;;;5097544;28;20566;-71
2023/03/14 05:15:04;;;;;;;;;;;8.40;99.90;;;;;;5090736;28;20495;-71
2023/03/14 05:17:32;;;;;;;5.35;1.95;;;8.30;99.90;;;;;;5095299;28;19964;-71
2023/03/14 05:19:58;;;;;;;9.82;3.08;;;9.40;99.90;;;;;;5095377;28;20044;-71
2023/03/14 05:22:24;;;;;;;;;;;9.20;99.90;;;;;;5077192;28;20047;-71
2023/03/14 05:24:49;;;;;;;7.78;2.17;;;8.30;99.90;;;;;;5094808;28;19965;-70
2023/03/14 05:27:15;;;;;;;;;;;8.20;99.90;;;;;;5078311;28;20040;-70
2023/03/14 05:29:40;;;;;;;6.20;1.83;;;8.60;99.90;;;;;;5076575;28;19920;-70
2023/03/14 05:32:06;;;;;;;;;;;8.20;99.90;;;;;;5077557;28;20040;-70
2023/03/14 05:34:34;;;;;;;6.95;2.25;;;8.20;99.90;;;;;;5094675;28;20010;-70
2023/03/14 05:37:00;;;;;;;9.60;1.80;;;9.00;99.90;;;;;;5076737;28;20052;-70
2023/03/14 05:39:26;;;;;;;;;;;8.70;99.90;;;;;;5076423;28;20104;-71
2023/03/14 05:41:53;;;;;;;8.48;1.60;;;7.90;99.90;;;;;;5076720;28;19958;-70
2023/03/14 05:44:19;;;;;;;5.50;1.42;;;7.70;99.90;;;;;;5076004;28;20052;-71
2023/03/14 05:46:44;;;;;;;;;;;7.60;99.90;;;;;;5077612;28;20040;-70
2023/03/14 05:49:10;;;;;;;7.05;1.00;;;7.50;99.90;;;;;;5094556;28;20371;-70
2023/03/14 05:51:35;;;;;;;;;;;7.40;99.90;;;;;;5077161;28;20044;-70
2023/03/14 05:54:01;;;;;;;10.13;1.52;;;7.50;99.90;;;;;;5094640;28;20413;-70
2023/03/14 05:56:27;;;;;;;;;;;8.00;99.90;;;;;;5076465;28;20052;-71
2023/03/14 05:58:58;;;;;;;15.98;3.47;;;6.80;99.90;;;;;;5094258;28;19928;-76
2023/03/14 06:01:24;;;;;;;13.27;1.80;;;6.40;99.90;;;;;;5075810;28;20036;-77
2023/03/14 06:03:49;;;;;;;;;;;7.70;99.90;;;;;;5094549;28;20418;-74
2023/03/14 06:06:16;;;;;;;14.50;1.75;;;6.30;99.90;;;;;;5094621;28;19927;-77
2023/03/14 06:08:42;;;;;;;10.65;1.50;;;7.30;99.90;;;;;;5093532;28;20040;-75
2023/03/14 06:11:08;;;;;;;;;;;7.50;99.90;;;;;;5094264;28;20170;-75
2023/03/14 06:13:35;;;;;;;12.45;1.58;;;6.90;99.90;;;;;;5103441;28;20378;-75
2023/03/14 06:16:01;;;;;;;7.38;1.42;;;5.70;99.90;;;;;;5088473;28;20058;-78
2023/03/14 06:18:26;;;;;;;;;;;5.70;99.90;;;;;;5091968;28;20126;-76
2023/03/14 06:20:56;;;;;;;6.72;1.42;;;5.30;99.90;;;;;;5114339;28;19963;-71
2023/03/14 06:23:22;;;;;;;7.75;1.15;;;6.90;99.90;;;;;;5114139;28;20051;-75
2023/03/14 06:25:47;;;;;;;;;;;6.30;99.90;;;;;;5114205;28;20459;-75
2023/03/14 06:28:13;;;;;;;6.75;1.40;;;5.30;99.90;;;;;;5107142;28;19927;-74
2023/03/14 06:30:39;;;;;;;;;;;4.90;99.90;;;;;;5094015;28;20043;-74
2023/03/14 06:33:04;;;;;;;6.28;1.00;;;5.40;99.90;;;;;;5075625;28;20276;-75
2023/03/14 06:35:30;;;;;;;;;;;4.80;99.90;;;;;;5102223;28;20043;-74
2023/03/14 06:37:56;;;;;;;4.93;0.77;;;4.90;99.90;;;;;;5076777;28;20345;-74
2023/03/14 06:40:21;;;;;;;;;;;4.80;99.90;;;;;;5094922;28;20048;-71
2023/03/14 06:42:47;;;;;;;4.82;0.95;;;4.80;99.90;;;;;;5095348;28;19931;-72
2023/03/14 06:45:13;;;;;;;;;;;5.20;99.90;;;;;;5114146;28;20047;-72
2023/03/14 06:47:39;;;;;;;5.38;0.85;;;4.80;99.90;;;;;;5094583;28;19920;-73
2023/03/14 06:50:09;;;;;;;;;;;4.80;99.90;;;;;;5112017;28;20676;-73
2023/03/14 06:52:35;;;;;;;5.88;1.10;;;4.80;99.90;;;;;;5109266;28;19930;-73
2023/03/14 06:55:00;;;;;;;4.32;0.90;;;4.80;99.90;;;;;;5113500;28;20078;-73
2023/03/14 06:57:26;;;;;;;;;;;5.70;99.90;;;;;;5113095;28;20082;-72
2023/03/14 06:59:52;;;;;;;6.78;1.10;;;4.80;99.90;;;;;;5110093;28;19971;-73
2023/03/14 07:02:17;;;;;;;;;;;4.70;99.90;;;;;;5107470;28;20036;-73
2023/03/14 07:04:43;;;;;;;6.93;1.13;;;4.70;99.90;;;;;;5082353;28;19924;-73
2023/03/14 07:07:08;;;;;;;;;;;4.70;99.90;;;;;;5091746;28;20448;-73
2023/03/14 07:09:34;;;;;;;5.82;1.20;;;4.70;99.90;;;;;;5090838;28;20022;-72
2023/03/14 07:12:00;;;;;;;6.45;1.40;;;4.70;99.90;;;;;;5085647;28;20197;-73
2023/03/14 07:14:26;;;;;;;;;;;4.70;99.90;;;;;;5070494;28;20131;-72
2023/03/14 07:16:51;;;;;;;5.63;1.02;;;4.70;99.90;;;;;;5089101;28;20364;-73
2023/03/14 07:19:17;;;;;;;;;;;4.80;99.90;;;;;;5072873;28;20436;-73
2023/03/14 07:21:43;;;;;;;9.43;1.10;;;5.10;99.90;;;;;;5091669;28;19923;-73
2023/03/14 07:24:08;;;;;;;;;;;4.90;99.90;;;;;;5093745;28;20126;-73
2023/03/14 07:26:34;;;;;;;7.22;1.38;;;5.20;99.90;;;;;;5074322;28;19920;-73
2023/03/14 07:29:00;;;;;;;;;;;4.90;99.90;;;;;;5074705;28;20047;-72
2023/03/14 07:31:25;;;;;;;9.43;1.10;;;5.00;99.90;;;;;;5074848;28;19920;-73
2023/03/14 07:33:51;;;;;;;;;;;5.00;99.90;;;;;;5074973;28;20044;-72
2023/03/14 07:36:17;;;;;;;9.80;1.73;;;5.00;99.90;;;;;;5074118;28;19924;-72
2023/03/14 07:38:42;;;;;;;;;;;5.00;99.90;;;;;;5093237;28;20076;-72
2023/03/14 07:41:08;;;;;;;10.68;1.60;;;5.00;99.90;;;;;;5074317;28;19931;-72
2023/03/14 07:43:34;;;;;;;;;;;5.80;99.90;;;;;;5074267;28;20043;-73
2023/03/14 07:45:59;;;;;;;9.27;1.67;;;5.20;99.90;;;;;;5074365;28;19919;-73
2023/03/14 07:48:26;;;;;;;;;;;5.70;99.90;;;;;;5075133;28;20082;-72
2023/03/14 07:50:53;;;;;;;11.10;1.67;;;5.10;99.90;;;;;;5091606;28;19955;-73
2023/03/14 07:53:19;;;;;;;10.20;2.30;;;5.20;99.90;;;;;;5074252;28;20032;-73
2023/03/14 07:55:45;;;;;;;13.13;2.05;;;5.20;99.90;;;;;;5092294;28;20101;-73
2023/03/14 07:58:11;;;;;;;;;;;5.30;99.90;;;;;;5093040;28;20119;-73
2023/03/14 08:00:37;;;;;;;8.70;2.55;;;6.70;99.90;;;;;;5092065;28;20259;-73
2023/03/14 08:03:03;;;;;;;;;;;5.40;99.90;;;;;;5078306;28;20079;-73
2023/03/14 08:05:28;;;;;;;8.48;1.70;;;5.90;99.90;;;;;;5078428;28;20375;-73
2023/03/14 08:07:54;;;;;;;;;;;6.30;99.90;;;;;;5097183;28;20510;-73
2023/03/14 08:10:22;;;;;;;14.82;2.13;;;5.50;99.90;;;;;;5096093;28;20003;-73
2023/03/14 08:12:56;;;;;;;13.45;2.42;;;5.60;99.90;;;;;;5113500;28;20548;-73
2023/03/14 08:15:22;;;;;;;15.85;2.20;;;6.80;99.90;;;;;;5116413;28;20079;-73
2023/03/14 08:17:50;;;;;;;14.32;2.47;;;5.90;99.90;;;;;;5116345;28;20101;-73
2023/03/14 08:20:20;;;;;;;8.50;2.20;;;6.10;99.90;;;;;;5117056;28;20062;-73
2023/03/14 08:22:45;;;;;;;21.00;3.83;;;6.40;99.90;;;;;;5116598;28;20039;-73
2023/03/14 08:25:11;;;;;;;;;;;7.70;99.90;;;;;;5116803;28;20149;-73
2023/03/14 08:27:38;;;;;;;13.10;2.55;;;8.00;99.90;;;;;;5114203;28;19923;-73
2023/03/14 08:30:05;;;;;;;14.98;3.15;;;6.40;99.90;;;;;;5116288;28;20551;-73
2023/03/14 08:32:31;;;;;;;16.50;2.40;;;6.60;99.90;;;;;;5115993;28;20046;-73
2023/03/14 08:34:57;;;;;;;;;;;8.00;99.90;;;;;;5116988;28;20036;-73
2023/03/14 08:37:24;;;;;;;11.90;2.13;;;6.40;99.90;;;;;;5115891;28;19927;-73
2023/03/14 08:39:50;;;;;;;18.20;2.30;;;6.50;99.90;;;;;;5097708;28;20069;-73
2023/03/14 08:42:16;;;;;;;10.77;2.15;;;7.60;99.90;;;;;;5116249;28;20398;-72
2023/03/14 08:44:41;;;;;;;;;;;6.40;99.90;;;;;;5098382;28;20043;-73
2023/03/14 08:47:07;;;;;;;12.13;2.83;;;6.50;99.90;;;;;;5115616;28;20006;-73
2023/03/14 08:49:33;;;;;;;;;;;7.40;99.90;;;;;;5099554;28;20136;-73
2023/03/14 08:51:58;;;;;;;17.48;2.88;;;6.40;99.90;;;;;;5095644;28;19920;-73
2023/03/14 08:54:24;;;;;;;;;;;7.10;99.90;;;;;;5096024;28;20039;-73
2023/03/14 08:56:50;;;;;;;8.73;1.70;;;6.10;99.90;;;;;;5095617;28;19923;-73
2023/03/14 08:59:15;;;;;;;;;;;6.00;99.90;;;;;;5096312;28;20399;-73
2023/03/14 09:01:41;;;;;;;7.93;1.75;;;7.20;99.90;;;;;;5095584;28;19920;-73
2023/03/14 09:04:06;;;;;;;;;;;6.10;99.90;;;;;;5078007;28;20502;-73
2023/03/14 09:06:32;;;;;;;12.05;2.25;;;6.20;99.90;;;;;;5076576;28;19927;-73
2023/03/14 09:08:57;;;;;;;;;;;8.20;99.90;;;;;;5089208;28;20127;-73
2023/03/14 09:11:23;;;;;;;12.80;2.55;;;7.30;99.90;;;;;;5076728;28;20283;-73
2023/03/14 09:13:49;;;;;;;;;;;6.90;99.90;;;;;;5094410;28;20036;-73
2023/03/14 09:16:14;;;;;;;12.18;2.50;;;8.40;99.90;;;;;;5095791;28;19977;-73
2023/03/14 09:18:40;;;;;;;;;;;7.40;99.90;;;;;;5078324;28;20161;-73
2023/03/14 09:21:06;;;;;;;12.05;2.55;;;6.90;99.90;;;;;;5078656;28;20352;-73
2023/03/14 09:23:32;;;;;;;14.95;2.38;;;6.90;99.90;;;;;;5096343;28;20044;-74
2023/03/14 09:25:59;;;;;;;10.70;2.33;;;7.10;99.90;;;;;;5076957;28;20372;-73
2023/03/14 09:28:25;;;;;;;9.68;2.03;;;8.30;99.90;;;;;;5076072;28;20109;-74
2023/03/14 09:30:50;;;;;;;;;;;8.80;99.90;;;;;;5077688;28;20044;-74
2023/03/14 09:33:17;;;;;;;15.43;2.20;;;9.30;99.90;;;;;;5096498;28;19920;-74
2023/03/14 09:35:43;;;;;;;16.42;2.60;;;7.90;99.90;;;;;;5096880;28;20065;-73
2023/03/14 09:38:08;;;;;;;;;;;9.20;99.90;;;;;;5115695;28;20482;-73
2023/03/14 09:40:35;;;;;;;12.98;3.13;;;8.70;99.90;;;;;;5096783;28;19920;-74
2023/03/14 09:43:02;;;;;;;9.52;2.13;;;10.00;99.90;;;;;;5114554;28;20047;-74
2023/03/14 09:45:40;;;;;;;12.68;2.35;;;10.10;99.90;;;;;;5091328;28;20040;-74
2023/03/14 09:48:11;;;;;;;9.57;2.38;;;10.00;99.90;;;;;;5094773;28;20449;-74
2023/03/14 09:50:43;;;;;;;8.68;1.80;;;10.80;99.90;;;;;;5081259;28;20203;-75
2023/03/14 09:53:17;;;;;;;11.35;2.10;;;11.30;99.90;;;;;;5115059;28;20043;-75
2023/03/14 09:55:44;;;;;;;9.57;2.35;;;12.40;97.60;;;;;;5114642;28;20055;-75
2023/03/14 09:58:13;;;;;;;11.13;2.10;;;13.10;97.80;;;;;;5115200;28;20084;-75
2023/03/14 10:00:39;;;;;;;9.15;2.05;;;13.20;94.40;;;;;;5114147;28;20039;-74
2023/03/14 10:03:20;;;;;;;10.75;2.05;;;13.50;93.60;;;;;;5096116;28;20048;-75
2023/03/14 10:05:46;;;;;;;8.50;1.55;;;13.40;92.30;;;;;;5096518;28;20100;-75
2023/03/14 10:08:15;;;;;;;;;;;14.50;92.80;;;;;;5115114;28;20043;-74
2023/03/14 10:10:41;;;;;;;9.57;1.50;;;14.00;91.20;;;;;;5095474;28;20147;-74
2023/03/14 10:13:27;;;;;;;7.20;1.65;;;12.70;91.00;;;;;;5115071;28;20118;-74
2023/03/14 10:15:55;;;;;;;12.48;1.85;;;11.40;92.70;;;;;;5114482;28;20066;-74
2023/03/14 10:18:23;;;;;;;8.43;1.83;;;11.20;94.60;;;;;;5114035;28;20043;-75
2023/03/14 10:21:02;;;;;;;5.53;1.20;;;11.60;93.90;;;;;;5112885;28;20058;-75
2023/03/14 10:23:31;;;;;;;5.95;1.77;;;12.60;90.70;;;;;;5092198;28;20102;-75
2023/03/14 10:26:07;;;;;;;5.57;1.50;;;13.50;88.90;;;;;;5092854;28;20505;-75
2023/03/14 10:28:38;;;;;;;;;;;14.50;88.10;;;;;;5094011;28;20048;-75
2023/03/14 10:31:04;;;;;;;10.35;2.03;;;14.90;86.60;;;;;;5093600;28;19927;-75
2023/03/14 10:33:32;;;;;;;10.30;2.20;;;14.80;88.80;;;;;;5093858;28;20495;-74
2023/03/14 10:36:28;;;;;;;7.70;1.92;;;13.70;89.30;;;;;;5093570;28;20445;-74
2023/03/14 10:39:49;;;;;;;6.97;1.60;;;12.00;90.90;;;;;;5092180;28;20161;-74
2023/03/14 10:42:20;;;;;;;9.75;1.58;;;11.50;91.40;;;;;;5034365;28;20087;-75
2023/03/14 10:44:50;;;;;;;4.80;1.40;;;12.20;90.70;;;;;;5086063;28;20044;-75
2023/03/14 10:47:23;;;;;;;7.38;1.40;;;13.40;90.60;;;;;;5093565;28;20054;-75
2023/03/14 10:49:48;;;;;;;8.18;1.65;;;14.60;88.10;;;;;;5093567;28;20064;-73
2023/03/14 10:52:22;;;;;;;7.85;1.45;;;15.10;85.20;;;;;;5092947;28;20080;-73
2023/03/14 10:54:54;;;;;;;5.20;1.55;;;15.40;80.00;;;;;;5093808;28;20047;-72
2023/03/14 10:57:20;;;;;;;7.13;1.50;;;15.20;80.00;;;;;;5092606;28;20530;-76
2023/03/14 10:59:46;;;;;;;4.95;1.23;;;15.80;79.00;;;;;;5093073;28;20047;-75
2023/03/14 11:02:40;;;;;;;5.65;1.13;;;15.70;81.70;;;;;;5093330;28;20047;-75
2023/03/14 11:05:32;;;;;;;5.68;1.42;;;16.60;79.20;;;;;;5075399;28;20411;-75
2023/03/14 11:08:12;;;;;;;5.35;1.30;;;16.70;75.20;;;;;;5092830;28;20411;-75
2023/03/14 11:10:47;;;;;;;3.83;1.15;;;16.30;73.40;;;;;;5091754;28;20044;-73
2023/03/14 11:13:12;;;;;;;6.85;1.35;;;16.20;73.60;;;;;;5092751;28;20039;-73
2023/03/14 11:16:13;;;;;;;4.85;1.35;;;16.30;74.30;;;;;;5092600;28;20104;-72
2023/03/14 11:18:51;;;;;;;6.88;1.40;;;16.50;75.60;;;;;;5091713;28;20065;-73
2023/03/14 11:21:40;;;;;;;6.90;1.60;;;16.50;75.80;;;;;;5112801;28;20387;-73
2023/03/14 11:24:24;;;;;;;2.92;0.90;;;16.40;74.50;;;;;;5111794;28;20039;-72
2023/03/14 11:27:16;;;;;;;7.07;1.25;;;15.90;77.30;;;;;;5099309;28;20052;-71
2023/03/14 11:30:13;;;;;;;7.93;1.38;;;15.00;75.60;;;;;;5093002;28;20054;-72
2023/03/14 11:32:56;;;;;;;8.45;1.42;;;14.80;77.50;;;;;;5092528;28;20055;-74
2023/03/14 11:35:28;;;;;;;7.05;1.50;;;14.40;80.40;;;;;;5074819;28;20048;-72
2023/03/14 11:38:15;;;;;;;10.20;1.63;;;13.60;82.60;;;;;;5073922;28;20549;-72
2023/03/14 11:40:42;;;;;;;5.03;1.40;;;12.80;85.90;;;;;;5108883;28;20064;-72
2023/03/14 11:43:41;;;;;;;7.18;1.50;;;12.60;84.40;;;;;;5112515;28;20531;-73
2023/03/14 11:46:39;;;;;;;6.05;1.52;;;12.40;82.80;;;;;;5112452;28;20509;-72
2023/03/14 11:49:16;;;;;;;6.88;1.45;;;12.40;85.20;;;;;;5077273;28;20054;-72
2023/03/14 11:51:47;;;;;;;9.52;1.70;;;12.30;87.10;;;;;;5074591;28;20089;-72
2023/03/14 11:54:16;;;;;;;4.22;1.13;;;12.70;84.30;;;;;;5074840;28;20564;-72
2023/03/14 11:56:57;;;;;;;3.20;1.48;;;13.10;83.90;;;;;;5091770;28;20373;-73
2023/03/14 11:59:42;;;;;;;6.28;1.58;;;13.30;81.90;;;;;;5092245;28;20105;-72
2023/03/14 12:02:35;;;;;;;8.27;1.58;;;12.80;80.60;;;;;;5105896;28;20045;-72
2023/03/14 12:05:22;;;;;;;10.57;2.28;;;12.50;83.60;;;;;;5088132;28;20055;-72
2023/03/14 12:08:06;;;;;;;7.93;1.60;;;12.60;83.00;;;;;;5092824;28;20175;-72
2023/03/14 12:10:55;;;;;;;7.43;1.50;;;12.50;83.20;;;;;;5073812;28;20122;-72
2023/03/14 12:13:21;;;;;;;7.72;1.65;;;12.20;83.20;;;;;;5091864;28;20479;-72
2023/03/14 12:15:59;;;;;;;7.50;1.38;;;12.70;79.20;;;;;;5092282;28;20056;-73
2023/03/14 12:18:29;;;;;;;7.55;2.63;;;13.50;76.60;;;;;;5073999;28;20074;-73
2023/03/14 12:20:58;;;;;;;6.30;1.27;;;13.90;75.00;;;;;;5091759;28;20487;-73
2023/03/14 12:23:25;;;;;;;6.28;1.40;;;14.60;76.80;;;;;;5091875;28;20055;-73
2023/03/14 12:26:13;;;;;;;5.63;1.42;;;15.50;78.40;;;;;;5092233;28;20047;-73
2023/03/14 12:29:08;;;;;;;7.40;1.20;;;16.00;76.80;;;;;;5092114;28;20119;-73
2023/03/14 12:31:42;;;;;;;6.40;1.30;;;16.10;74.70;;;;;;5071098;28;20071;-73
2023/03/14 12:34:11;;;;;;;9.40;1.30;;;15.80;75.50;;;;;;5073771;28;20040;-73
2023/03/14 12:36:49;;;;;;;7.60;1.60;;;16.10;73.80;;;;;;5073883;28;20446;-73
2023/03/14 12:39:33;;;;;;;6.65;1.23;;;15.20;74.90;;;;;;5073523;28;20036;-73
2023/03/14 12:42:08;;;;;;;3.50;1.10;;;14.80;75.80;;;;;;5074265;28;20044;-73
2023/03/14 12:44:40;;;;;;;6.25;1.52;;;14.90;73.20;;;;;;5091684;28;20040;-73
2023/03/14 12:47:18;;;;;;;7.97;1.60;;;14.60;75.40;;;;;;5091975;28;20494;-73
2023/03/14 12:49:53;;;;;;;7.55;1.60;;;14.40;73.40;;;;;;5077091;28;20083;-73
2023/03/14 12:52:50;;;;;;;5.75;1.35;;;14.50;74.50;;;;;;5096157;28;20487;-73
2023/03/14 12:55:35;;;;;;;6.03;1.42;;;14.70;74.10;;;;;;5051234;28;20073;-73
2023/03/14 12:58:06;;;;;;;5.55;1.42;;;15.60;74.10;;;;;;5098038;28;20054;-73
2023/03/14 13:00:34;;;;;;;5.35;1.45;;;15.00;73.80;;;;;;5115636;28;20065;-73
2023/03/14 13:03:14;;;;;;;5.22;1.05;;;14.80;75.10;;;;;;5104180;28;20070;-72
2023/03/14 13:05:53;;;;;;;7.93;1.30;;;14.90;74.90;;;;;;5095790;28;20086;-73
2023/03/14 13:08:40;;;;;;;6.47;1.45;;;14.50;74.30;;;;;;5095306;28;20097;-73
2023/03/14 13:11:19;;;;;;;7.82;1.25;;;14.80;74.80;;;;;;5095625;28;20032;-73
2023/03/14 13:13:51;;;;;;;6.55;1.27;;;14.70;74.80;;;;;;5095915;28;20544;-73
2023/03/14 13:16:21;;;;;;;6.65;1.55;;;14.60;75.80;;;;;;5095009;28;20048;-72
2023/03/14 13:19:15;;;;;;;5.30;1.50;;;14.40;75.70;;;;;;5095493;28;20040;-73
2023/03/14 13:21:41;;;;;;;6.30;1.30;;;14.20;75.20;;;;;;5094901;28;20479;-73